sensor_id;sensor_type;location;lat;lon;timestamp;temperature;humidity
22471;DHT22;11402;51.374;6.594;2022-10-31T00:00:55;14.50;99.90
22471;DHT22;11402;51.374;6.594;2022-10-31T00:03:21;14.50;99.90
22471;DHT22;11402;51.374;6.594;2022-10-31T00:05:48;14.50;99.90
22471;DHT22;11402;51.374;6.594;2022-10-31T00:08:15;14.40;99.90
22471;DHT22;11402;51.374;6.594;2022-10-31T00:10:42;14.50;99.90
22471;DHT22;11402;51.374;6.594;2022-10-31T00:13:09;14.50;99.90
22471;DHT22;11402;51.374;6.594;2022-10-31T00:15:35;14.50;99.90
22471;DHT22;11402;51.374;6.594;2022-10-31T00:18:02;14.60;99.90
22471;DHT22;11402;51.374;6.594;2022-10-31T00:20:28;14.50;99.90
22471;DHT22;11402;51.374;6.594;2022-10-31T00:22:58;14.40;99.90
22471;DHT22;11402;51.374;6.594;2022-10-31T00:25:23;14.40;99.90
22471;DHT22;11402;51.374;6.594;2022-10-31T00:27:49;14.40;99.90
22471;DHT22;11402;51.374;6.594;2022-10-31T00:30:15;14.60;99.90
22471;DHT22;11402;51.374;6.594;2022-10-31T00:32:40;14.50;99.90
22471;DHT22;11402;51.374;6.594;2022-10-31T00:35:06;14.60;99.90
22471;DHT22;11402;51.374;6.594;2022-10-31T00:37:31;14.50;99.90
22471;DHT22;11402;51.374;6.594;2022-10-31T00:39:57;14.40;99.90
22471;DHT22;11402;51.374;6.594;2022-10-31T00:42:23;14.50;99.90
22471;DHT22;11402;51.374;6.594;2022-10-31T00:44:48;14.40;99.90
22471;DHT22;11402;51.374;6.594;2022-10-31T00:47:14;14.40;99.90
22471;DHT22;11402;51.374;6.594;2022-10-31T00:49:39;14.50;99.90
22471;DHT22;11402;51.374;6.594;2022-10-31T00:52:05;14.50;99.90
22471;DHT22;11402;51.374;6.594;2022-10-31T00:54:30;14.40;99.90
22471;DHT22;11402;51.374;6.594;2022-10-31T00:56:56;14.40;99.90
22471;DHT22;11402;51.374;6.594;2022-10-31T00:59:22;14.50;99.90
22471;DHT22;11402;51.374;6.594;2022-10-31T01:01:48;14.40;99.90
22471;DHT22;11402;51.374;6.594;2022-10-31T01:04:13;14.40;99.90
22471;DHT22;11402;51.374;6.594;2022-10-31T01:06:39;14.50;99.90
22471;DHT22;11402;51.374;6.594;2022-10-31T01:09:04;14.40;99.90
22471;DHT22;11402;51.374;6.594;2022-10-31T01:11:30;14.30;99.90
22471;DHT22;11402;51.374;6.594;2022-10-31T01:13:56;14.30;99.90
22471;DHT22;11402;51.374;6.594;2022-10-31T01:16:25;14.60;99.90
22471;DHT22;11402;51.374;6.594;2022-10-31T01:18:51;14.30;99.90
22471;DHT22;11402;51.374;6.594;2022-10-31T01:21:22;14.20;99.90
22471;DHT22;11402;51.374;6.594;2022-10-31T01:23:49;14.00;99.90
22471;DHT22;11402;51.374;6.594;2022-10-31T01:26:17;14.10;99.90
22471;DHT22;11402;51.374;6.594;2022-10-31T01:28:51;14.00;99.90
22471;DHT22;11402;51.374;6.594;2022-10-31T01:31:19;13.90;99.90
22471;DHT22;11402;51.374;6.594;2022-10-31T01:33:45;13.90;99.90
22471;DHT22;11402;51.374;6.594;2022-10-31T01:36:18;13.80;99.90
22471;DHT22;11402;51.374;6.594;2022-10-31T01:38:46;13.80;99.90
22471;DHT22;11402;51.374;6.594;2022-10-31T01:41:16;13.80;99.90
22471;DHT22;11402;51.374;6.594;2022-10-31T01:43:49;13.90;99.90
22471;DHT22;11402;51.374;6.594;2022-10-31T01:46:20;13.80;99.90
22471;DHT22;11402;51.374;6.594;2022-10-31T01:48:46;13.80;99.90
22471;DHT22;11402;51.374;6.594;2022-10-31T01:51:14;13.80;99.90
22471;DHT22;11402;51.374;6.594;2022-10-31T01:53:42;13.70;99.90
22471;DHT22;11402;51.374;6.594;2022-10-31T01:56:08;14.20;99.90
22471;DHT22;11402;51.374;6.594;2022-10-31T01:58:35;13.70;99.90
22471;DHT22;11402;51.374;6.594;2022-10-31T02:01:01;13.70;99.90
22471;DHT22;11402;51.374;6.594;2022-10-31T02:03:28;13.90;99.90
22471;DHT22;11402;51.374;6.594;2022-10-31T02:05:55;13.70;99.90
22471;DHT22;11402;51.374;6.594;2022-10-31T02:08:29;13.20;99.90
22471;DHT22;11402;51.374;6.594;2022-10-31T02:10:59;13.80;99.90
22471;DHT22;11402;51.374;6.594;2022-10-31T02:13:26;13.40;99.90
22471;DHT22;11402;51.374;6.594;2022-10-31T02:15:55;13.80;99.90
22471;DHT22;11402;51.374;6.594;2022-10-31T02:18:23;13.70;99.90
22471;DHT22;11402;51.374;6.594;2022-10-31T02:33:59;13.60;99.90
22471;DHT22;11402;51.374;6.594;2022-10-31T02:36:53;13.60;99.90
22471;DHT22;11402;51.374;6.594;2022-10-31T02:39:37;13.50;99.90
22471;DHT22;11402;51.374;6.594;2022-10-31T02:42:13;13.50;99.90
22471;DHT22;11402;51.374;6.594;2022-10-31T02:47:36;13.20;99.90
22471;DHT22;11402;51.374;6.594;2022-10-31T02:50:06;13.30;99.90
22471;DHT22;11402;51.374;6.594;2022-10-31T02:52:34;13.30;99.90
22471;DHT22;11402;51.374;6.594;2022-10-31T02:57:47;13.00;99.90
22471;DHT22;11402;51.374;6.594;2022-10-31T03:00:13;13.10;99.90
22471;DHT22;11402;51.374;6.594;2022-10-31T03:08:54;13.00;99.90
22471;DHT22;11402;51.374;6.594;2022-10-31T03:11:25;13.00;99.90
22471;DHT22;11402;51.374;6.594;2022-10-31T03:14:03;13.10;99.90
22471;DHT22;11402;51.374;6.594;2022-10-31T03:16:48;12.90;99.90
22471;DHT22;11402;51.374;6.594;2022-10-31T03:19:19;13.00;99.90
22471;DHT22;11402;51.374;6.594;2022-10-31T03:21:47;13.00;99.90
22471;DHT22;11402;51.374;6.594;2022-10-31T03:24:15;12.90;99.90
22471;DHT22;11402;51.374;6.594;2022-10-31T03:26:45;12.80;99.90
22471;DHT22;11402;51.374;6.594;2022-10-31T03:29:15;12.70;99.90
22471;DHT22;11402;51.374;6.594;2022-10-31T03:31:53;12.60;99.90
22471;DHT22;11402;51.374;6.594;2022-10-31T03:34:20;12.70;99.90
22471;DHT22;11402;51.374;6.594;2022-10-31T03:36:49;12.80;99.90
22471;DHT22;11402;51.374;6.594;2022-10-31T03:39:17;12.70;99.90
22471;DHT22;11402;51.374;6.594;2022-10-31T03:41:58;12.70;99.90
22471;DHT22;11402;51.374;6.594;2022-10-31T03:44:26;12.70;99.90
22471;DHT22;11402;51.374;6.594;2022-10-31T03:46:52;12.50;99.90
22471;DHT22;11402;51.374;6.594;2022-10-31T03:49:18;12.50;99.90
22471;DHT22;11402;51.374;6.594;2022-10-31T03:51:52;12.50;99.90
22471;DHT22;11402;51.374;6.594;2022-10-31T03:54:32;12.60;99.90
22471;DHT22;11402;51.374;6.594;2022-10-31T03:57:08;12.70;99.90
22471;DHT22;11402;51.374;6.594;2022-10-31T03:59:40;12.70;99.90
22471;DHT22;11402;51.374;6.594;2022-10-31T04:02:11;12.70;99.90
22471;DHT22;11402;51.374;6.594;2022-10-31T04:04:38;12.70;99.90
22471;DHT22;11402;51.374;6.594;2022-10-31T04:07:06;12.50;99.90
22471;DHT22;11402;51.374;6.594;2022-10-31T04:09:35;12.40;99.90
22471;DHT22;11402;51.374;6.594;2022-10-31T04:12:03;12.50;99.90
22471;DHT22;11402;51.374;6.594;2022-10-31T04:14:32;12.60;99.90
22471;DHT22;11402;51.374;6.594;2022-10-31T04:17:00;12.70;99.90
22471;DHT22;11402;51.374;6.594;2022-10-31T04:19:26;12.70;99.90
22471;DHT22;11402;51.374;6.594;2022-10-31T04:21:52;12.60;99.90
22471;DHT22;11402;51.374;6.594;2022-10-31T04:24:17;12.40;99.90
22471;DHT22;11402;51.374;6.594;2022-10-31T04:26:43;12.50;99.90
22471;DHT22;11402;51.374;6.594;2022-10-31T04:29:08;12.60;99.90
22471;DHT22;11402;51.374;6.594;2022-10-31T04:31:34;12.60;99.90
22471;DHT22;11402;51.374;6.594;2022-10-31T04:33:59;12.70;99.90
22471;DHT22;11402;51.374;6.594;2022-10-31T04:36:25;12.70;99.90
22471;DHT22;11402;51.374;6.594;2022-10-31T04:38:50;12.70;99.90
22471;DHT22;11402;51.374;6.594;2022-10-31T04:41:16;12.70;99.90
22471;DHT22;11402;51.374;6.594;2022-10-31T04:43:42;12.60;99.90
22471;DHT22;11402;51.374;6.594;2022-10-31T04:46:07;12.70;99.90
22471;DHT22;11402;51.374;6.594;2022-10-31T04:48:33;12.70;99.90
22471;DHT22;11402;51.374;6.594;2022-10-31T04:51:02;12.80;99.90
22471;DHT22;11402;51.374;6.594;2022-10-31T04:53:28;12.70;99.90
22471;DHT22;11402;51.374;6.594;2022-10-31T04:55:54;12.70;99.90
22471;DHT22;11402;51.374;6.594;2022-10-31T04:58:19;12.60;99.90
22471;DHT22;11402;51.374;6.594;2022-10-31T05:00:45;12.60;99.90
22471;DHT22;11402;51.374;6.594;2022-10-31T05:03:10;12.50;99.90
22471;DHT22;11402;51.374;6.594;2022-10-31T05:05:36;12.50;99.90
22471;DHT22;11402;51.374;6.594;2022-10-31T05:08:02;12.60;99.90
22471;DHT22;11402;51.374;6.594;2022-10-31T05:10:29;12.70;99.90
22471;DHT22;11402;51.374;6.594;2022-10-31T05:12:58;12.70;99.90
22471;DHT22;11402;51.374;6.594;2022-10-31T05:15:25;12.60;99.90
22471;DHT22;11402;51.374;6.594;2022-10-31T05:17:52;12.70;99.90
22471;DHT22;11402;51.374;6.594;2022-10-31T05:20:20;12.60;99.90
22471;DHT22;11402;51.374;6.594;2022-10-31T05:22:48;12.50;99.90
22471;DHT22;11402;51.374;6.594;2022-10-31T05:25:14;12.40;99.90
22471;DHT22;11402;51.374;6.594;2022-10-31T05:27:41;12.30;99.90
22471;DHT22;11402;51.374;6.594;2022-10-31T05:30:07;12.30;99.90
22471;DHT22;11402;51.374;6.594;2022-10-31T05:32:40;12.30;99.90
22471;DHT22;11402;51.374;6.594;2022-10-31T05:35:08;12.40;99.90
22471;DHT22;11402;51.374;6.594;2022-10-31T05:37:36;12.50;99.90
22471;DHT22;11402;51.374;6.594;2022-10-31T05:40:03;12.50;99.90
22471;DHT22;11402;51.374;6.594;2022-10-31T05:42:29;12.50;99.90
22471;DHT22;11402;51.374;6.594;2022-10-31T05:44:54;12.50;99.90
22471;DHT22;11402;51.374;6.594;2022-10-31T05:47:20;12.50;99.90
22471;DHT22;11402;51.374;6.594;2022-10-31T05:49:45;12.40;99.90
22471;DHT22;11402;51.374;6.594;2022-10-31T05:52:11;12.40;99.90
22471;DHT22;11402;51.374;6.594;2022-10-31T05:54:37;12.40;99.90
22471;DHT22;11402;51.374;6.594;2022-10-31T05:57:02;12.40;99.90
22471;DHT22;11402;51.374;6.594;2022-10-31T05:59:28;12.40;99.90
22471;DHT22;11402;51.374;6.594;2022-10-31T06:01:53;12.40;99.90
22471;DHT22;11402;51.374;6.594;2022-10-31T06:04:19;12.40;99.90
22471;DHT22;11402;51.374;6.594;2022-10-31T06:06:44;12.30;99.90
22471;DHT22;11402;51.374;6.594;2022-10-31T06:09:10;12.40;99.90
22471;DHT22;11402;51.374;6.594;2022-10-31T06:11:35;12.30;99.90
22471;DHT22;11402;51.374;6.594;2022-10-31T06:14:01;12.10;99.90
22471;DHT22;11402;51.374;6.594;2022-10-31T06:16:27;12.00;99.90
22471;DHT22;11402;51.374;6.594;2022-10-31T06:18:52;12.20;99.90
22471;DHT22;11402;51.374;6.594;2022-10-31T06:21:18;12.20;99.90
22471;DHT22;11402;51.374;6.594;2022-10-31T06:23:43;12.20;99.90
22471;DHT22;11402;51.374;6.594;2022-10-31T06:26:09;12.20;99.90
22471;DHT22;11402;51.374;6.594;2022-10-31T06:28:34;12.20;99.90
22471;DHT22;11402;51.374;6.594;2022-10-31T06:31:00;12.10;99.90
22471;DHT22;11402;51.374;6.594;2022-10-31T06:33:25;12.00;99.90
22471;DHT22;11402;51.374;6.594;2022-10-31T06:35:51;12.10;99.90
22471;DHT22;11402;51.374;6.594;2022-10-31T06:38:17;12.20;99.90
22471;DHT22;11402;51.374;6.594;2022-10-31T06:40:42;12.20;99.90
22471;DHT22;11402;51.374;6.594;2022-10-31T06:43:08;12.20;99.90
22471;DHT22;11402;51.374;6.594;2022-10-31T06:45:34;12.20;99.90
22471;DHT22;11402;51.374;6.594;2022-10-31T06:47:59;12.10;99.90
22471;DHT22;11402;51.374;6.594;2022-10-31T06:50:25;12.10;99.90
22471;DHT22;11402;51.374;6.594;2022-10-31T06:52:52;12.00;99.90
22471;DHT22;11402;51.374;6.594;2022-10-31T06:55:18;12.10;99.90
22471;DHT22;11402;51.374;6.594;2022-10-31T06:57:57;12.10;99.90
22471;DHT22;11402;51.374;6.594;2022-10-31T07:00:23;12.20;99.90
22471;DHT22;11402;51.374;6.594;2022-10-31T07:02:59;12.20;99.90
22471;DHT22;11402;51.374;6.594;2022-10-31T07:05:25;12.10;99.90
22471;DHT22;11402;51.374;6.594;2022-10-31T07:07:58;12.00;99.90
22471;DHT22;11402;51.374;6.594;2022-10-31T07:10:25;12.10;99.90
22471;DHT22;11402;51.374;6.594;2022-10-31T07:12:58;12.10;99.90
22471;DHT22;11402;51.374;6.594;2022-10-31T07:15:25;12.10;99.90
22471;DHT22;11402;51.374;6.594;2022-10-31T07:17:51;12.10;99.90
22471;DHT22;11402;51.374;6.594;2022-10-31T07:20:17;12.20;99.90
22471;DHT22;11402;51.374;6.594;2022-10-31T07:22:43;12.20;99.90
22471;DHT22;11402;51.374;6.594;2022-10-31T07:25:09;12.10;99.90
22471;DHT22;11402;51.374;6.594;2022-10-31T07:27:36;12.20;99.90
22471;DHT22;11402;51.374;6.594;2022-10-31T07:30:03;12.20;99.90
22471;DHT22;11402;51.374;6.594;2022-10-31T07:32:40;12.20;99.90
22471;DHT22;11402;51.374;6.594;2022-10-31T07:35:08;12.10;99.90
22471;DHT22;11402;51.374;6.594;2022-10-31T07:37:34;12.10;99.90
22471;DHT22;11402;51.374;6.594;2022-10-31T07:39:59;12.20;99.90
22471;DHT22;11402;51.374;6.594;2022-10-31T07:42:25;12.20;99.90
22471;DHT22;11402;51.374;6.594;2022-10-31T07:44:50;12.30;99.90
22471;DHT22;11402;51.374;6.594;2022-10-31T07:47:16;12.30;99.90
22471;DHT22;11402;51.374;6.594;2022-10-31T07:49:41;12.20;99.90
22471;DHT22;11402;51.374;6.594;2022-10-31T07:52:07;12.20;99.90
22471;DHT22;11402;51.374;6.594;2022-10-31T07:54:32;12.30;99.90
22471;DHT22;11402;51.374;6.594;2022-10-31T07:56:58;12.40;99.90
22471;DHT22;11402;51.374;6.594;2022-10-31T07:59:23;12.40;99.90
22471;DHT22;11402;51.374;6.594;2022-10-31T08:01:51;12.40;99.90
22471;DHT22;11402;51.374;6.594;2022-10-31T08:04:16;12.50;99.90
22471;DHT22;11402;51.374;6.594;2022-10-31T08:06:42;12.50;99.90
22471;DHT22;11402;51.374;6.594;2022-10-31T08:09:07;12.60;99.90
22471;DHT22;11402;51.374;6.594;2022-10-31T08:11:33;12.70;99.90
22471;DHT22;11402;51.374;6.594;2022-10-31T08:13:58;12.70;99.90
22471;DHT22;11402;51.374;6.594;2022-10-31T08:16:24;12.70;99.90
22471;DHT22;11402;51.374;6.594;2022-10-31T08:18:49;12.80;99.90
22471;DHT22;11402;51.374;6.594;2022-10-31T08:21:15;12.80;99.90
22471;DHT22;11402;51.374;6.594;2022-10-31T08:23:40;12.90;99.90
22471;DHT22;11402;51.374;6.594;2022-10-31T08:26:06;13.00;99.90
22471;DHT22;11402;51.374;6.594;2022-10-31T08:28:32;13.00;99.90
22471;DHT22;11402;51.374;6.594;2022-10-31T08:30:58;13.10;99.90
22471;DHT22;11402;51.374;6.594;2022-10-31T08:33:24;13.10;99.90
22471;DHT22;11402;51.374;6.594;2022-10-31T08:35:49;13.20;99.90
22471;DHT22;11402;51.374;6.594;2022-10-31T08:38:15;13.30;99.90
22471;DHT22;11402;51.374;6.594;2022-10-31T08:40:41;13.30;99.90
22471;DHT22;11402;51.374;6.594;2022-10-31T08:43:12;13.40;99.90
22471;DHT22;11402;51.374;6.594;2022-10-31T08:45:38;13.40;99.90
22471;DHT22;11402;51.374;6.594;2022-10-31T08:48:05;13.60;99.90
22471;DHT22;11402;51.374;6.594;2022-10-31T08:50:33;13.60;99.90
22471;DHT22;11402;51.374;6.594;2022-10-31T08:53:19;13.60;99.90
22471;DHT22;11402;51.374;6.594;2022-10-31T08:55:46;13.70;99.90
22471;DHT22;11402;51.374;6.594;2022-10-31T08:58:16;13.80;99.90
22471;DHT22;11402;51.374;6.594;2022-10-31T09:00:43;13.90;99.90
22471;DHT22;11402;51.374;6.594;2022-10-31T09:03:14;13.90;99.90
22471;DHT22;11402;51.374;6.594;2022-10-31T09:05:40;14.00;99.90
22471;DHT22;11402;51.374;6.594;2022-10-31T09:08:06;14.10;99.90
22471;DHT22;11402;51.374;6.594;2022-10-31T09:10:34;14.10;99.90
22471;DHT22;11402;51.374;6.594;2022-10-31T09:13:20;14.10;99.90
22471;DHT22;11402;51.374;6.594;2022-10-31T09:15:48;14.20;99.90
22471;DHT22;11402;51.374;6.594;2022-10-31T09:18:16;14.20;99.90
22471;DHT22;11402;51.374;6.594;2022-10-31T09:20:43;14.20;99.90
22471;DHT22;11402;51.374;6.594;2022-10-31T09:23:12;14.20;99.90
22471;DHT22;11402;51.374;6.594;2022-10-31T09:25:38;14.30;99.90
22471;DHT22;11402;51.374;6.594;2022-10-31T09:28:05;14.40;99.90
22471;DHT22;11402;51.374;6.594;2022-10-31T09:30:33;14.50;99.90
22471;DHT22;11402;51.374;6.594;2022-10-31T09:33:04;14.80;99.90
22471;DHT22;11402;51.374;6.594;2022-10-31T09:35:30;14.90;99.90
22471;DHT22;11402;51.374;6.594;2022-10-31T09:38:04;14.90;99.90
22471;DHT22;11402;51.374;6.594;2022-10-31T09:40:47;15.10;99.90
22471;DHT22;11402;51.374;6.594;2022-10-31T09:43:51;15.00;99.90
22471;DHT22;11402;51.374;6.594;2022-10-31T09:52:29;15.00;99.90
22471;DHT22;11402;51.374;6.594;2022-10-31T09:55:18;15.20;99.90
22471;DHT22;11402;51.374;6.594;2022-10-31T09:57:46;15.30;99.90
22471;DHT22;11402;51.374;6.594;2022-10-31T10:00:21;15.40;99.90
22471;DHT22;11402;51.374;6.594;2022-10-31T10:02:57;15.40;99.90
22471;DHT22;11402;51.374;6.594;2022-10-31T10:05:30;15.50;99.90
22471;DHT22;11402;51.374;6.594;2022-10-31T10:10:55;15.50;99.90
22471;DHT22;11402;51.374;6.594;2022-10-31T10:16:12;15.50;99.90
22471;DHT22;11402;51.374;6.594;2022-10-31T10:21:34;15.70;99.90
22471;DHT22;11402;51.374;6.594;2022-10-31T10:27:06;15.80;99.90
22471;DHT22;11402;51.374;6.594;2022-10-31T10:29:43;15.90;99.90
22471;DHT22;11402;51.374;6.594;2022-10-31T10:32:23;16.00;99.90
22471;DHT22;11402;51.374;6.594;2022-10-31T10:34:52;16.20;99.90
22471;DHT22;11402;51.374;6.594;2022-10-31T10:37:34;16.20;99.90
22471;DHT22;11402;51.374;6.594;2022-10-31T10:40:11;16.20;99.90
22471;DHT22;11402;51.374;6.594;2022-10-31T10:42:38;16.40;99.90
22471;DHT22;11402;51.374;6.594;2022-10-31T10:45:23;16.30;99.90
22471;DHT22;11402;51.374;6.594;2022-10-31T10:50:59;16.40;99.90
22471;DHT22;11402;51.374;6.594;2022-10-31T10:53:40;16.40;99.90
22471;DHT22;11402;51.374;6.594;2022-10-31T10:56:49;16.50;99.90
22471;DHT22;11402;51.374;6.594;2022-10-31T10:59:19;16.60;99.90
22471;DHT22;11402;51.374;6.594;2022-10-31T11:01:48;16.60;99.90
22471;DHT22;11402;51.374;6.594;2022-10-31T11:04:33;16.60;99.90
22471;DHT22;11402;51.374;6.594;2022-10-31T11:07:02;16.50;99.90
22471;DHT22;11402;51.374;6.594;2022-10-31T11:09:28;16.60;99.90
22471;DHT22;11402;51.374;6.594;2022-10-31T11:11:54;16.60;99.90
22471;DHT22;11402;51.374;6.594;2022-10-31T11:14:21;16.70;99.90
22471;DHT22;11402;51.374;6.594;2022-10-31T11:16:55;16.80;99.90
22471;DHT22;11402;51.374;6.594;2022-10-31T11:19:32;16.80;99.90
22471;DHT22;11402;51.374;6.594;2022-10-31T11:22:07;16.90;99.90
22471;DHT22;11402;51.374;6.594;2022-10-31T11:24:38;17.00;99.90
22471;DHT22;11402;51.374;6.594;2022-10-31T11:27:20;17.00;99.90
22471;DHT22;11402;51.374;6.594;2022-10-31T11:29:46;17.10;99.90
22471;DHT22;11402;51.374;6.594;2022-10-31T11:32:21;17.20;99.90
22471;DHT22;11402;51.374;6.594;2022-10-31T11:34:56;17.20;99.90
22471;DHT22;11402;51.374;6.594;2022-10-31T11:37:26;17.30;99.90
22471;DHT22;11402;51.374;6.594;2022-10-31T11:40:02;17.30;99.90
22471;DHT22;11402;51.374;6.594;2022-10-31T11:42:40;17.40;99.90
22471;DHT22;11402;51.374;6.594;2022-10-31T11:45:18;17.40;99.90
22471;DHT22;11402;51.374;6.594;2022-10-31T11:47:54;17.40;99.90
22471;DHT22;11402;51.374;6.594;2022-10-31T11:50:35;17.40;99.90
22471;DHT22;11402;51.374;6.594;2022-10-31T11:53:02;17.50;99.90
22471;DHT22;11402;51.374;6.594;2022-10-31T11:55:38;17.50;99.90
22471;DHT22;11402;51.374;6.594;2022-10-31T11:58:25;17.60;99.90
22471;DHT22;11402;51.374;6.594;2022-10-31T12:00:54;17.60;99.90
22471;DHT22;11402;51.374;6.594;2022-10-31T12:08:19;17.70;99.90
22471;DHT22;11402;51.374;6.594;2022-10-31T12:10:58;17.70;99.90
22471;DHT22;11402;51.374;6.594;2022-10-31T12:13:36;17.80;99.90
22471;DHT22;11402;51.374;6.594;2022-10-31T12:16:12;17.80;99.90
22471;DHT22;11402;51.374;6.594;2022-10-31T12:19:02;17.90;99.90
22471;DHT22;11402;51.374;6.594;2022-10-31T12:21:35;17.90;99.90
22471;DHT22;11402;51.374;6.594;2022-10-31T12:24:12;17.90;99.90
22471;DHT22;11402;51.374;6.594;2022-10-31T12:27:07;18.10;99.90
22471;DHT22;11402;51.374;6.594;2022-10-31T12:29:50;18.20;99.90
22471;DHT22;11402;51.374;6.594;2022-10-31T12:32:42;18.20;99.90
22471;DHT22;11402;51.374;6.594;2022-10-31T12:38:29;18.20;99.90
22471;DHT22;11402;51.374;6.594;2022-10-31T12:41:20;18.20;99.90
22471;DHT22;11402;51.374;6.594;2022-10-31T12:44:06;18.30;99.90
22471;DHT22;11402;51.374;6.594;2022-10-31T12:49:59;18.30;99.90
22471;DHT22;11402;51.374;6.594;2022-10-31T12:52:47;18.30;99.90
22471;DHT22;11402;51.374;6.594;2022-10-31T13:01:00;18.40;99.90
22471;DHT22;11402;51.374;6.594;2022-10-31T13:06:30;18.50;99.90
22471;DHT22;11402;51.374;6.594;2022-10-31T13:09:01;18.50;99.90
22471;DHT22;11402;51.374;6.594;2022-10-31T13:11:37;18.50;99.90
22471;DHT22;11402;51.374;6.594;2022-10-31T13:14:25;18.60;99.90
22471;DHT22;11402;51.374;6.594;2022-10-31T13:16:52;18.50;99.90
22471;DHT22;11402;51.374;6.594;2022-10-31T13:19:24;18.50;99.90
22471;DHT22;11402;51.374;6.594;2022-10-31T13:27:42;18.50;99.90
22471;DHT22;11402;51.374;6.594;2022-10-31T13:30:18;18.50;99.90
22471;DHT22;11402;51.374;6.594;2022-10-31T13:32:48;18.50;99.90
22471;DHT22;11402;51.374;6.594;2022-10-31T13:35:26;18.60;99.90
22471;DHT22;11402;51.374;6.594;2022-10-31T13:41:10;18.60;99.90
22471;DHT22;11402;51.374;6.594;2022-10-31T13:46:26;18.60;99.90
22471;DHT22;11402;51.374;6.594;2022-10-31T13:48:59;18.60;99.90
22471;DHT22;11402;51.374;6.594;2022-10-31T13:51:28;18.50;99.90
22471;DHT22;11402;51.374;6.594;2022-10-31T13:56:49;18.60;99.90
22471;DHT22;11402;51.374;6.594;2022-10-31T13:59:18;18.60;99.90
22471;DHT22;11402;51.374;6.594;2022-10-31T14:02:14;18.70;99.90
22471;DHT22;11402;51.374;6.594;2022-10-31T14:05:00;18.70;99.90
22471;DHT22;11402;51.374;6.594;2022-10-31T14:07:26;18.70;99.90
22471;DHT22;11402;51.374;6.594;2022-10-31T14:10:01;18.70;99.90
22471;DHT22;11402;51.374;6.594;2022-10-31T14:12:43;18.70;99.90
22471;DHT22;11402;51.374;6.594;2022-10-31T14:15:19;18.70;99.90
22471;DHT22;11402;51.374;6.594;2022-10-31T14:17:54;18.80;99.90
22471;DHT22;11402;51.374;6.594;2022-10-31T14:20:40;18.70;99.90
22471;DHT22;11402;51.374;6.594;2022-10-31T14:25:54;18.80;99.90
22471;DHT22;11402;51.374;6.594;2022-10-31T14:28:33;18.70;99.90
22471;DHT22;11402;51.374;6.594;2022-10-31T14:31:00;18.70;99.90
22471;DHT22;11402;51.374;6.594;2022-10-31T14:33:28;18.70;99.90
22471;DHT22;11402;51.374;6.594;2022-10-31T14:36:04;18.70;99.90
22471;DHT22;11402;51.374;6.594;2022-10-31T14:38:58;18.70;99.90
22471;DHT22;11402;51.374;6.594;2022-10-31T14:41:54;18.80;99.90
22471;DHT22;11402;51.374;6.594;2022-10-31T14:50:14;18.70;99.90
22471;DHT22;11402;51.374;6.594;2022-10-31T14:52:47;18.70;99.90
22471;DHT22;11402;51.374;6.594;2022-10-31T14:55:14;18.70;99.90
22471;DHT22;11402;51.374;6.594;2022-10-31T14:57:48;18.70;99.90
22471;DHT22;11402;51.374;6.594;2022-10-31T15:00:19;18.70;99.90
22471;DHT22;11402;51.374;6.594;2022-10-31T15:03:16;18.60;99.90
22471;DHT22;11402;51.374;6.594;2022-10-31T15:05:51;18.70;99.90
22471;DHT22;11402;51.374;6.594;2022-10-31T15:08:55;18.70;99.90
22471;DHT22;11402;51.374;6.594;2022-10-31T15:11:25;18.60;99.90
22471;DHT22;11402;51.374;6.594;2022-10-31T15:13:57;18.60;99.90
22471;DHT22;11402;51.374;6.594;2022-10-31T15:16:25;18.50;99.90
22471;DHT22;11402;51.374;6.594;2022-10-31T15:18:55;18.50;99.90
22471;DHT22;11402;51.374;6.594;2022-10-31T15:21:23;18.50;99.90
22471;DHT22;11402;51.374;6.594;2022-10-31T15:23:52;18.50;99.90
22471;DHT22;11402;51.374;6.594;2022-10-31T15:26:20;18.50;99.90
22471;DHT22;11402;51.374;6.594;2022-10-31T15:29:01;18.50;99.90
22471;DHT22;11402;51.374;6.594;2022-10-31T15:31:27;18.40;99.90
22471;DHT22;11402;51.374;6.594;2022-10-31T15:33:53;18.40;99.90
22471;DHT22;11402;51.374;6.594;2022-10-31T15:36:22;18.30;99.90
22471;DHT22;11402;51.374;6.594;2022-10-31T15:38:49;18.20;99.90
22471;DHT22;11402;51.374;6.594;2022-10-31T15:43:56;18.20;99.90
22471;DHT22;11402;51.374;6.594;2022-10-31T15:46:23;18.20;99.90
22471;DHT22;11402;51.374;6.594;2022-10-31T15:48:48;18.20;99.90
22471;DHT22;11402;51.374;6.594;2022-10-31T15:51:14;18.30;99.90
22471;DHT22;11402;51.374;6.594;2022-10-31T15:53:49;18.20;99.90
22471;DHT22;11402;51.374;6.594;2022-10-31T15:56:27;18.20;99.90
22471;DHT22;11402;51.374;6.594;2022-10-31T15:58:55;18.20;99.90
22471;DHT22;11402;51.374;6.594;2022-10-31T16:01:30;18.10;99.90
22471;DHT22;11402;51.374;6.594;2022-10-31T16:06:36;18.10;99.90
22471;DHT22;11402;51.374;6.594;2022-10-31T16:09:03;18.00;99.90
22471;DHT22;11402;51.374;6.594;2022-10-31T16:11:36;18.00;99.90
22471;DHT22;11402;51.374;6.594;2022-10-31T16:16:45;17.90;99.90
22471;DHT22;11402;51.374;6.594;2022-10-31T16:19:27;17.90;99.90
22471;DHT22;11402;51.374;6.594;2022-10-31T16:22:01;17.90;99.90
22471;DHT22;11402;51.374;6.594;2022-10-31T16:24:30;17.80;99.90
22471;DHT22;11402;51.374;6.594;2022-10-31T16:27:15;17.80;99.90
22471;DHT22;11402;51.374;6.594;2022-10-31T16:29:46;17.70;99.90
22471;DHT22;11402;51.374;6.594;2022-10-31T16:32:54;17.60;99.90
22471;DHT22;11402;51.374;6.594;2022-10-31T16:35:31;17.50;99.90
22471;DHT22;11402;51.374;6.594;2022-10-31T16:37:57;17.40;99.90
22471;DHT22;11402;51.374;6.594;2022-10-31T16:40:23;17.30;99.90
22471;DHT22;11402;51.374;6.594;2022-10-31T16:42:49;17.20;99.90
22471;DHT22;11402;51.374;6.594;2022-10-31T16:45:26;17.20;99.90
22471;DHT22;11402;51.374;6.594;2022-10-31T16:47:52;17.10;99.90
22471;DHT22;11402;51.374;6.594;2022-10-31T16:50:21;17.10;99.90
22471;DHT22;11402;51.374;6.594;2022-10-31T16:52:47;17.00;99.90
22471;DHT22;11402;51.374;6.594;2022-10-31T16:55:17;16.90;99.90
22471;DHT22;11402;51.374;6.594;2022-10-31T16:57:52;16.90;99.90
22471;DHT22;11402;51.374;6.594;2022-10-31T17:00:23;16.90;99.90
22471;DHT22;11402;51.374;6.594;2022-10-31T17:02:55;16.80;99.90
22471;DHT22;11402;51.374;6.594;2022-10-31T17:05:25;16.90;99.90
22471;DHT22;11402;51.374;6.594;2022-10-31T17:07:58;16.80;99.90
22471;DHT22;11402;51.374;6.594;2022-10-31T17:10:24;16.80;99.90
22471;DHT22;11402;51.374;6.594;2022-10-31T17:12:50;16.80;99.90
22471;DHT22;11402;51.374;6.594;2022-10-31T17:15:23;16.70;99.90
22471;DHT22;11402;51.374;6.594;2022-10-31T17:17:49;16.80;99.90
22471;DHT22;11402;51.374;6.594;2022-10-31T17:20:24;16.80;99.90
22471;DHT22;11402;51.374;6.594;2022-10-31T17:22:50;16.90;99.90
22471;DHT22;11402;51.374;6.594;2022-10-31T17:25:18;16.90;99.90
22471;DHT22;11402;51.374;6.594;2022-10-31T17:27:45;16.90;99.90